Pope Field

About
Name: Pope Field
Identifier:  POB/KPOB
Owner:  United States Army
Local Time:  18. Sep 15:00 EDT
Description: Pope Field is a U.S. military facility located 12 miles northwest of the central business district of Fayetteville, in Cumberland County, North Carolina, United States. Formerly known as Pope Air Force Base, the facility continues to be used by the United States Air Force but is now operated by the U.S. Army as part of Fort Bragg.[4][5]
Source: Wikipedia
Location
Fayetteville
  United States

Statistics
Flights per Day:
0 flights
Distance: 602km (374mi)
Flights delayed:
0% (0 flights per day delayed)
Delay Average: 12 minutes
Current Weather
 26 C (Humidity: 44%)
  10kt (18km/h / 11mph) from 50°
  16km (10 mi.)
 
 METAR KPOB 181756Z AUTO 05010KT 10SM CLR 26/13 A3013 RMK AO2 SLP204 T02580129 10260 20185 $

Current Delays

Departures
N/A
Arrivals
N/A

Destinations

Top Destinations
Airport Flights
per week
Seats
per week
  Pittsburgh (PIT) 0 36 0 5

Airlines & Planes

Top Airlines
Airline Flights
per Day
Seats
per Day
  Allegiant Air 0 5
Top Plane Types
Model Flights Seats
Airbus A319 0.0/day 5/day 5.2